Watrous, New Mexico
Current Conditions -  °F | °C
As of 5:53 PM on Friday 28 Nov 2014 (Local Time) from KLVS Reporting Station
Clear Clear  
Wind Chill: 51°   Ceiling: Unl
Heat Index: 51°   Visibility: 10mi
Dew Point: 10°   Wind: 10mph
Humidity: 19%   Direction: 210°SSW
Pressure: 30.07"   Gusts: NA
Location:  35.79°N, 104.98°W
Report Text: KLVS 290053Z AUTO 21009KT 10SM CLR 11/M12 A3007 RMK AO2 SLP126 T01061122
Loading
Personal Weather Stations






























Interactive Weather Map New forecast layout! Learn more

10-Day Weather Forecast

Advertisements
Track Severe Weather on mobile